createdAt,value
2023-01-25T00:02:59.174Z,8.25
2023-01-25T00:09:01.106Z,9.57
2023-01-25T00:15:02.924Z,9.52
2023-01-25T00:21:22.090Z,8.32
2023-01-25T00:27:23.916Z,9.45
2023-01-25T00:33:37.630Z,8.98
2023-01-25T00:39:39.617Z,9.43
2023-01-25T00:45:41.442Z,8.43
2023-01-25T00:51:43.604Z,9.20
2023-01-25T00:57:45.389Z,9.35
2023-01-25T01:03:47.284Z,8.70
2023-01-25T01:09:49.183Z,8.40
2023-01-25T01:15:51.236Z,8.85
2023-01-25T01:21:53.122Z,10.00
2023-01-25T01:27:54.888Z,8.65
2023-01-25T01:33:58.458Z,9.07
2023-01-25T01:40:00.345Z,9.43
2023-01-25T01:46:04.099Z,9.57
2023-01-25T01:52:12.991Z,9.93
2023-01-25T01:58:14.957Z,8.90
2023-01-25T02:04:19.925Z,8.90
2023-01-25T02:10:23.137Z,8.25
2023-01-25T02:16:27.605Z,9.57
2023-01-25T02:23:06.847Z,9.32
2023-01-25T02:29:10.248Z,9.90
2023-01-25T02:35:23.506Z,8.50
2023-01-25T02:41:37.746Z,8.40
2023-01-25T02:47:39.572Z,9.23
2023-01-25T02:53:41.614Z,9.07
2023-01-25T02:59:43.535Z,9.43
2023-01-25T03:05:45.364Z,10.43
2023-01-25T03:11:47.305Z,10.63
2023-01-25T03:17:49.189Z,10.45
2023-01-25T03:24:01.796Z,9.82
2023-01-25T03:30:04.191Z,10.10
2023-01-25T03:36:06.847Z,9.98
2023-01-25T03:42:08.949Z,11.57
2023-01-25T03:48:10.847Z,12.50
2023-01-25T03:54:12.737Z,12.55
2023-01-25T04:00:15.397Z,11.18
2023-01-25T04:06:17.343Z,12.43
2023-01-25T04:12:19.272Z,12.63
2023-01-25T04:18:22.013Z,12.43
2023-01-25T04:24:23.849Z,12.32
2023-01-25T04:30:25.882Z,12.77
2023-01-25T04:36:27.787Z,13.77
2023-01-25T04:42:29.838Z,14.00
2023-01-25T04:48:32.733Z,14.05
2023-01-25T04:54:34.540Z,13.38
2023-01-25T05:00:36.611Z,13.70
2023-01-25T05:06:38.511Z,13.70
2023-01-25T05:12:40.371Z,15.02
2023-01-25T05:18:48.390Z,14.85
2023-01-25T05:24:51.018Z,16.02
2023-01-25T05:30:53.139Z,15.40
2023-01-25T05:36:55.104Z,15.63
2023-01-25T05:42:58.763Z,15.98
2023-01-25T05:49:00.736Z,15.82
2023-01-25T05:55:02.563Z,15.38
2023-01-25T06:01:07.890Z,16.10
2023-01-25T06:07:09.788Z,15.45
2023-01-25T06:13:11.799Z,15.35
2023-01-25T06:19:14.367Z,14.43
2023-01-25T06:25:16.327Z,14.32
2023-01-25T06:31:18.759Z,13.60
2023-01-25T06:37:23.063Z,13.25
2023-01-25T06:43:24.967Z,11.50
2023-01-25T06:49:26.787Z,11.20
2023-01-25T06:55:28.617Z,11.45
2023-01-25T07:01:30.741Z,10.02
2023-01-25T07:07:32.612Z,10.40
2023-01-25T07:13:35.081Z,9.40
2023-01-25T07:19:36.872Z,10.05
2023-01-25T07:25:44.792Z,10.95
2023-01-25T07:31:46.649Z,9.27
2023-01-25T07:37:48.381Z,10.65
2023-01-25T07:43:50.203Z,10.65
2023-01-25T07:49:51.938Z,11.27
2023-01-25T07:55:53.861Z,10.27
2023-01-25T08:01:56.056Z,8.60
2023-01-25T08:07:58.076Z,10.20
2023-01-25T08:14:02.052Z,9.88
2023-01-25T08:20:05.034Z,10.05
2023-01-25T08:26:09.199Z,9.85
2023-01-25T08:32:11.263Z,10.63
2023-01-25T08:38:13.039Z,10.07
2023-01-25T08:44:15.361Z,10.93
2023-01-25T08:50:17.614Z,10.88
2023-01-25T08:56:19.535Z,12.77
2023-01-25T09:02:21.810Z,12.05
2023-01-25T09:08:23.864Z,12.95
2023-01-25T09:14:25.797Z,11.88
2023-01-25T09:20:28.311Z,12.23
2023-01-25T09:26:31.537Z,12.88
2023-01-25T09:32:34.251Z,10.70
2023-01-25T09:38:36.714Z,12.07
2023-01-25T09:44:41.358Z,11.48
2023-01-25T09:57:04.815Z,11.55
2023-01-25T10:03:25.768Z,11.77
2023-01-25T10:09:33.619Z,11.68
2023-01-25T10:15:44.115Z,11.80
2023-01-25T10:21:49.821Z,13.25
2023-01-25T10:28:19.796Z,12.52
2023-01-25T10:34:34.145Z,12.20
2023-01-25T10:40:44.457Z,11.88
2023-01-25T10:46:52.250Z,12.35
2023-01-25T10:52:58.925Z,11.20
2023-01-25T10:59:28.503Z,13.15
2023-01-25T11:05:41.933Z,13.10
2023-01-25T11:11:43.960Z,12.70
2023-01-25T11:17:45.933Z,13.50
2023-01-25T11:24:09.346Z,12.85
2023-01-25T11:30:21.918Z,11.68
2023-01-25T11:36:32.780Z,12.45
2023-01-25T11:42:42.859Z,10.63
2023-01-25T11:49:26.155Z,11.02
2023-01-25T11:55:48.877Z,12.95
2023-01-25T12:02:08.826Z,13.10
2023-01-25T12:08:39.980Z,13.32
2023-01-25T12:15:12.253Z,11.63
2023-01-25T12:21:32.770Z,13.07
2023-01-25T12:27:57.836Z,13.98
2023-01-25T12:40:22.563Z,14.07
2023-01-25T12:46:30.884Z,14.23
2023-01-25T12:52:41.211Z,14.82
2023-01-25T12:58:57.028Z,15.32
2023-01-25T13:05:30.095Z,14.70
2023-01-25T13:11:43.714Z,15.77
2023-01-25T13:17:45.685Z,14.02
2023-01-25T13:24:12.529Z,12.98
2023-01-25T13:30:34.800Z,13.60
2023-01-25T13:36:45.686Z,13.80
2023-01-25T13:43:03.856Z,14.13
2023-01-25T13:49:14.897Z,12.68
2023-01-25T13:55:20.301Z,14.35
2023-01-25T14:01:23.841Z,13.70
2023-01-25T14:07:34.053Z,11.48
2023-01-25T14:13:35.850Z,13.48
2023-01-25T14:19:40.485Z,13.02
2023-01-25T14:25:42.295Z,12.38
2023-01-25T14:31:46.338Z,11.40
2023-01-25T14:37:48.226Z,12.07
2023-01-25T14:43:53.829Z,12.63
2023-01-25T14:49:55.575Z,13.65
2023-01-25T14:55:58.734Z,14.05
2023-01-25T15:02:23.464Z,12.45
2023-01-25T15:08:35.842Z,12.73
2023-01-25T15:14:52.238Z,12.50
2023-01-25T15:20:54.110Z,13.27
2023-01-25T15:26:56.424Z,13.25
2023-01-25T15:33:00.691Z,12.65
2023-01-25T15:39:02.621Z,12.98
2023-01-25T15:45:06.841Z,13.82
2023-01-25T15:51:10.713Z,13.25
2023-01-25T15:57:34.601Z,13.07
2023-01-25T16:03:36.475Z,13.00
2023-01-25T16:09:38.211Z,13.27
2023-01-25T16:15:40.909Z,13.27
2023-01-25T16:21:43.259Z,12.05
2023-01-25T16:27:45.488Z,13.43
2023-01-25T16:33:47.391Z,14.00
2023-01-25T16:39:50.243Z,14.73
2023-01-25T16:45:57.760Z,14.35
2023-01-25T16:52:02.763Z,14.75
2023-01-25T16:58:04.617Z,15.90
2023-01-25T17:04:07.352Z,16.08
2023-01-25T17:10:11.196Z,15.45
2023-01-25T17:16:13.794Z,17.70
2023-01-25T17:22:15.841Z,16.55
2023-01-25T17:28:17.747Z,17.50
2023-01-25T17:34:20.240Z,17.25
2023-01-25T17:40:22.332Z,18.65
2023-01-25T17:46:30.131Z,21.48
2023-01-25T17:52:32.026Z,21.65
2023-01-25T17:58:37.086Z,29.00
2023-01-25T18:04:39.401Z,28.23
2023-01-25T18:10:41.421Z,27.45
2023-01-25T18:16:43.515Z,27.92
2023-01-25T18:22:45.443Z,28.88
2023-01-25T18:28:47.481Z,28.73
2023-01-25T18:34:49.623Z,31.02
2023-01-25T18:40:51.819Z,30.42
2023-01-25T18:46:53.657Z,32.45
2023-01-25T18:52:55.953Z,33.60
2023-01-25T18:58:58.787Z,28.23
2023-01-25T19:05:00.829Z,32.75
2023-01-25T19:11:08.775Z,32.05
2023-01-25T19:17:10.717Z,33.72
2023-01-25T19:23:12.663Z,32.63
2023-01-25T19:29:15.491Z,34.47
2023-01-25T19:35:17.468Z,31.67
2023-01-25T19:41:25.353Z,34.72
2023-01-25T19:47:27.407Z,34.00
2023-01-25T19:53:29.514Z,33.33
2023-01-25T19:59:31.664Z,31.60
2023-01-25T20:05:33.692Z,30.00
2023-01-25T20:11:35.751Z,35.33
2023-01-25T20:17:37.737Z,33.05
2023-01-25T20:23:44.073Z,35.30
2023-01-25T20:29:46.576Z,29.45
2023-01-25T20:35:50.145Z,32.80
2023-01-25T20:41:53.821Z,30.70
2023-01-25T20:47:55.841Z,37.50
2023-01-25T20:53:58.147Z,32.28
2023-01-25T21:00:00.172Z,31.63
2023-01-25T21:06:02.056Z,30.88
2023-01-25T21:12:03.915Z,28.90
2023-01-25T21:18:05.953Z,30.70
2023-01-25T21:24:09.102Z,32.08
2023-01-25T21:30:11.803Z,30.15
2023-01-25T21:36:15.416Z,29.25
2023-01-25T21:42:17.258Z,30.42
2023-01-25T21:48:39.002Z,28.20
2023-01-25T21:54:40.947Z,30.33
2023-01-25T22:00:42.884Z,30.80
2023-01-25T22:06:45.612Z,30.35
2023-01-25T22:12:50.792Z,33.50
2023-01-25T22:18:53.177Z,33.20
2023-01-25T22:24:56.807Z,33.28
2023-01-25T22:30:58.743Z,27.65
2023-01-25T22:37:00.683Z,33.65
2023-01-25T22:43:02.586Z,29.75
2023-01-25T22:49:04.918Z,34.55
2023-01-25T22:55:07.339Z,36.03
2023-01-25T23:01:11.053Z,36.42
2023-01-25T23:07:13.003Z,34.47
2023-01-25T23:13:14.908Z,34.13
2023-01-25T23:19:16.892Z,33.75
2023-01-25T23:25:18.902Z,33.47
2023-01-25T23:31:22.533Z,34.88
2023-01-25T23:37:24.726Z,34.20
2023-01-25T23:43:26.593Z,33.67
2023-01-25T23:49:28.417Z,33.92
2023-01-25T23:55:30.267Z,34.42
